sensor_id;sensor_type;location;lat;lon;timestamp;P1;durP1;ratioP1;P2;durP2;ratioP2
77938;SDS011;67136;47.546;21.630;2023-08-31T00:02:01;12.37;;;6.40;;
77938;SDS011;67136;47.546;21.630;2023-08-31T00:05:04;12.17;;;6.50;;
77938;SDS011;67136;47.546;21.630;2023-08-31T00:08:07;9.90;;;6.32;;
77938;SDS011;67136;47.546;21.630;2023-08-31T00:11:10;10.40;;;6.18;;
77938;SDS011;67136;47.546;21.630;2023-08-31T00:14:12;9.82;;;6.43;;
77938;SDS011;67136;47.546;21.630;2023-08-31T00:17:15;14.90;;;6.78;;
77938;SDS011;67136;47.546;21.630;2023-08-31T00:20:17;13.97;;;7.10;;
77938;SDS011;67136;47.546;21.630;2023-08-31T00:23:21;11.63;;;7.00;;
77938;SDS011;67136;47.546;21.630;2023-08-31T00:26:23;9.52;;;6.60;;
77938;SDS011;67136;47.546;21.630;2023-08-31T00:29:27;14.48;;;7.20;;
77938;SDS011;67136;47.546;21.630;2023-08-31T00:32:29;11.32;;;7.12;;
77938;SDS011;67136;47.546;21.630;2023-08-31T00:35:33;10.13;;;6.97;;
77938;SDS011;67136;47.546;21.630;2023-08-31T00:38:36;11.52;;;7.22;;
77938;SDS011;67136;47.546;21.630;2023-08-31T00:41:39;17.12;;;7.70;;
77938;SDS011;67136;47.546;21.630;2023-08-31T00:44:41;14.90;;;7.68;;
77938;SDS011;67136;47.546;21.630;2023-08-31T00:47:44;12.98;;;7.40;;
77938;SDS011;67136;47.546;21.630;2023-08-31T00:50:50;18.37;;;7.67;;
77938;SDS011;67136;47.546;21.630;2023-08-31T00:53:54;13.88;;;7.40;;
77938;SDS011;67136;47.546;21.630;2023-08-31T00:56:57;16.95;;;8.02;;
77938;SDS011;67136;47.546;21.630;2023-08-31T01:00:00;15.00;;;7.87;;
77938;SDS011;67136;47.546;21.630;2023-08-31T01:03:08;14.73;;;8.38;;
77938;SDS011;67136;47.546;21.630;2023-08-31T01:06:18;14.10;;;8.33;;
77938;SDS011;67136;47.546;21.630;2023-08-31T01:09:45;17.40;;;8.07;;
77938;SDS011;67136;47.546;21.630;2023-08-31T01:12:50;17.52;;;8.18;;
77938;SDS011;67136;47.546;21.630;2023-08-31T01:15:59;14.87;;;8.00;;
77938;SDS011;67136;47.546;21.630;2023-08-31T01:19:07;14.98;;;8.68;;
77938;SDS011;67136;47.546;21.630;2023-08-31T01:25:30;18.20;;;9.10;;
77938;SDS011;67136;47.546;21.630;2023-08-31T01:28:34;16.85;;;9.30;;
77938;SDS011;67136;47.546;21.630;2023-08-31T01:31:43;17.95;;;8.85;;
77938;SDS011;67136;47.546;21.630;2023-08-31T01:34:48;19.85;;;8.98;;
77938;SDS011;67136;47.546;21.630;2023-08-31T01:38:02;17.33;;;8.90;;
77938;SDS011;67136;47.546;21.630;2023-08-31T01:41:07;14.60;;;8.90;;
77938;SDS011;67136;47.546;21.630;2023-08-31T01:44:15;14.52;;;9.20;;
77938;SDS011;67136;47.546;21.630;2023-08-31T01:47:18;17.67;;;9.20;;
77938;SDS011;67136;47.546;21.630;2023-08-31T01:50:22;19.05;;;9.20;;
77938;SDS011;67136;47.546;21.630;2023-08-31T01:53:25;18.13;;;9.50;;
77938;SDS011;67136;47.546;21.630;2023-08-31T01:56:28;17.60;;;9.60;;
77938;SDS011;67136;47.546;21.630;2023-08-31T01:59:31;15.90;;;9.52;;
77938;SDS011;67136;47.546;21.630;2023-08-31T02:02:34;15.57;;;9.38;;
77938;SDS011;67136;47.546;21.630;2023-08-31T02:05:37;16.17;;;9.63;;
77938;SDS011;67136;47.546;21.630;2023-08-31T02:08:40;16.33;;;8.67;;
77938;SDS011;67136;47.546;21.630;2023-08-31T02:11:43;20.23;;;9.95;;
77938;SDS011;67136;47.546;21.630;2023-08-31T02:14:47;15.57;;;10.02;;
77938;SDS011;67136;47.546;21.630;2023-08-31T02:17:50;18.98;;;9.80;;
77938;SDS011;67136;47.546;21.630;2023-08-31T02:20:52;19.27;;;10.48;;
77938;SDS011;67136;47.546;21.630;2023-08-31T02:23:55;19.40;;;9.87;;
77938;SDS011;67136;47.546;21.630;2023-08-31T02:26:58;17.87;;;10.25;;
77938;SDS011;67136;47.546;21.630;2023-08-31T02:30:00;15.75;;;10.10;;
77938;SDS011;67136;47.546;21.630;2023-08-31T02:33:05;16.83;;;10.35;;
77938;SDS011;67136;47.546;21.630;2023-08-31T02:36:08;15.98;;;10.10;;
77938;SDS011;67136;47.546;21.630;2023-08-31T02:39:10;15.60;;;8.77;;
77938;SDS011;67136;47.546;21.630;2023-08-31T02:42:16;17.92;;;9.63;;
77938;SDS011;67136;47.546;21.630;2023-08-31T02:45:20;18.70;;;10.13;;
77938;SDS011;67136;47.546;21.630;2023-08-31T02:48:22;15.70;;;9.45;;
77938;SDS011;67136;47.546;21.630;2023-08-31T02:51:25;22.73;;;10.20;;
77938;SDS011;67136;47.546;21.630;2023-08-31T02:54:28;16.87;;;9.77;;
77938;SDS011;67136;47.546;21.630;2023-08-31T02:57:30;20.77;;;10.30;;
77938;SDS011;67136;47.546;21.630;2023-08-31T03:00:33;15.40;;;9.70;;
77938;SDS011;67136;47.546;21.630;2023-08-31T03:03:37;16.42;;;10.75;;
77938;SDS011;67136;47.546;21.630;2023-08-31T03:06:43;19.25;;;10.23;;
77938;SDS011;67136;47.546;21.630;2023-08-31T03:09:48;16.53;;;10.07;;
77938;SDS011;67136;47.546;21.630;2023-08-31T03:12:51;20.70;;;10.73;;
77938;SDS011;67136;47.546;21.630;2023-08-31T03:15:54;17.40;;;10.10;;
77938;SDS011;67136;47.546;21.630;2023-08-31T03:18:58;18.77;;;10.55;;
77938;SDS011;67136;47.546;21.630;2023-08-31T03:22:01;19.23;;;11.45;;
77938;SDS011;67136;47.546;21.630;2023-08-31T03:25:04;21.00;;;10.80;;
77938;SDS011;67136;47.546;21.630;2023-08-31T03:28:07;19.48;;;10.80;;
77938;SDS011;67136;47.546;21.630;2023-08-31T03:31:10;19.60;;;11.30;;
77938;SDS011;67136;47.546;21.630;2023-08-31T03:34:13;20.25;;;10.85;;
77938;SDS011;67136;47.546;21.630;2023-08-31T03:37:15;22.70;;;11.60;;
77938;SDS011;67136;47.546;21.630;2023-08-31T03:40:18;21.00;;;11.00;;
77938;SDS011;67136;47.546;21.630;2023-08-31T03:43:21;18.50;;;10.68;;
77938;SDS011;67136;47.546;21.630;2023-08-31T03:46:25;21.20;;;10.93;;
77938;SDS011;67136;47.546;21.630;2023-08-31T03:49:28;19.90;;;10.90;;
77938;SDS011;67136;47.546;21.630;2023-08-31T03:52:32;19.65;;;10.43;;
77938;SDS011;67136;47.546;21.630;2023-08-31T03:55:35;20.37;;;11.23;;
77938;SDS011;67136;47.546;21.630;2023-08-31T03:58:39;21.23;;;10.85;;
77938;SDS011;67136;47.546;21.630;2023-08-31T04:01:41;21.25;;;10.57;;
77938;SDS011;67136;47.546;21.630;2023-08-31T04:04:45;20.40;;;10.98;;
77938;SDS011;67136;47.546;21.630;2023-08-31T04:07:48;30.40;;;11.35;;
77938;SDS011;67136;47.546;21.630;2023-08-31T04:10:51;19.13;;;11.23;;
77938;SDS011;67136;47.546;21.630;2023-08-31T04:13:55;19.52;;;11.00;;
77938;SDS011;67136;47.546;21.630;2023-08-31T04:16:58;19.98;;;11.05;;
77938;SDS011;67136;47.546;21.630;2023-08-31T04:20:01;18.80;;;11.23;;
77938;SDS011;67136;47.546;21.630;2023-08-31T04:23:03;19.80;;;11.35;;
77938;SDS011;67136;47.546;21.630;2023-08-31T04:26:09;17.73;;;11.27;;
77938;SDS011;67136;47.546;21.630;2023-08-31T04:29:14;20.15;;;11.23;;
77938;SDS011;67136;47.546;21.630;2023-08-31T04:32:16;18.87;;;11.55;;
77938;SDS011;67136;47.546;21.630;2023-08-31T04:35:19;21.23;;;11.45;;
77938;SDS011;67136;47.546;21.630;2023-08-31T04:38:21;20.20;;;11.60;;
77938;SDS011;67136;47.546;21.630;2023-08-31T04:41:24;22.57;;;12.57;;
77938;SDS011;67136;47.546;21.630;2023-08-31T04:44:27;22.65;;;12.00;;
77938;SDS011;67136;47.546;21.630;2023-08-31T04:47:29;25.58;;;13.25;;
77938;SDS011;67136;47.546;21.630;2023-08-31T04:50:32;22.45;;;13.20;;
77938;SDS011;67136;47.546;21.630;2023-08-31T04:53:34;22.52;;;12.77;;
77938;SDS011;67136;47.546;21.630;2023-08-31T04:56:37;22.47;;;13.10;;
77938;SDS011;67136;47.546;21.630;2023-08-31T04:59:40;21.85;;;13.48;;
77938;SDS011;67136;47.546;21.630;2023-08-31T05:02:42;20.20;;;12.27;;
77938;SDS011;67136;47.546;21.630;2023-08-31T05:05:46;21.25;;;12.65;;
77938;SDS011;67136;47.546;21.630;2023-08-31T05:08:48;20.67;;;12.32;;
77938;SDS011;67136;47.546;21.630;2023-08-31T05:11:51;18.83;;;11.43;;
77938;SDS011;67136;47.546;21.630;2023-08-31T05:14:53;21.58;;;12.70;;
77938;SDS011;67136;47.546;21.630;2023-08-31T05:17:57;21.37;;;11.05;;
77938;SDS011;67136;47.546;21.630;2023-08-31T05:20:59;17.73;;;11.15;;
77938;SDS011;67136;47.546;21.630;2023-08-31T05:24:02;19.92;;;11.98;;
77938;SDS011;67136;47.546;21.630;2023-08-31T05:27:05;17.17;;;11.03;;
77938;SDS011;67136;47.546;21.630;2023-08-31T05:30:08;19.33;;;10.68;;
77938;SDS011;67136;47.546;21.630;2023-08-31T05:33:11;19.00;;;11.05;;
77938;SDS011;67136;47.546;21.630;2023-08-31T05:36:14;17.98;;;10.75;;
77938;SDS011;67136;47.546;21.630;2023-08-31T05:39:16;17.90;;;10.90;;
77938;SDS011;67136;47.546;21.630;2023-08-31T05:42:19;20.67;;;11.20;;
77938;SDS011;67136;47.546;21.630;2023-08-31T05:45:21;18.98;;;11.32;;
77938;SDS011;67136;47.546;21.630;2023-08-31T05:48:25;19.62;;;11.30;;
77938;SDS011;67136;47.546;21.630;2023-08-31T05:51:28;18.55;;;11.50;;
77938;SDS011;67136;47.546;21.630;2023-08-31T05:54:30;17.27;;;10.90;;
77938;SDS011;67136;47.546;21.630;2023-08-31T05:57:33;19.10;;;11.57;;
77938;SDS011;67136;47.546;21.630;2023-08-31T06:00:36;17.60;;;11.23;;
77938;SDS011;67136;47.546;21.630;2023-08-31T06:03:38;20.35;;;11.38;;
77938;SDS011;67136;47.546;21.630;2023-08-31T06:06:41;19.50;;;10.98;;
77938;SDS011;67136;47.546;21.630;2023-08-31T06:09:43;18.83;;;11.48;;
77938;SDS011;67136;47.546;21.630;2023-08-31T06:12:46;19.33;;;11.53;;
77938;SDS011;67136;47.546;21.630;2023-08-31T06:15:49;19.15;;;10.75;;
77938;SDS011;67136;47.546;21.630;2023-08-31T06:18:51;18.67;;;11.32;;
77938;SDS011;67136;47.546;21.630;2023-08-31T06:21:54;21.83;;;12.40;;
77938;SDS011;67136;47.546;21.630;2023-08-31T06:24:56;18.05;;;12.37;;
77938;SDS011;67136;47.546;21.630;2023-08-31T06:27:59;19.83;;;12.23;;
77938;SDS011;67136;47.546;21.630;2023-08-31T06:31:01;23.08;;;13.62;;
77938;SDS011;67136;47.546;21.630;2023-08-31T06:34:05;22.42;;;14.23;;
77938;SDS011;67136;47.546;21.630;2023-08-31T06:37:07;26.40;;;16.45;;
77938;SDS011;67136;47.546;21.630;2023-08-31T06:40:10;23.50;;;14.50;;
77938;SDS011;67136;47.546;21.630;2023-08-31T06:43:13;24.73;;;13.97;;
77938;SDS011;67136;47.546;21.630;2023-08-31T06:46:16;23.33;;;13.15;;
77938;SDS011;67136;47.546;21.630;2023-08-31T06:49:26;19.70;;;13.20;;
77938;SDS011;67136;47.546;21.630;2023-08-31T06:52:30;19.70;;;13.18;;
77938;SDS011;67136;47.546;21.630;2023-08-31T06:55:33;19.85;;;12.50;;
77938;SDS011;67136;47.546;21.630;2023-08-31T06:58:36;18.40;;;12.20;;
77938;SDS011;67136;47.546;21.630;2023-08-31T07:01:39;14.75;;;11.00;;
77938;SDS011;67136;47.546;21.630;2023-08-31T07:04:42;16.42;;;11.45;;
77938;SDS011;67136;47.546;21.630;2023-08-31T07:07:45;16.37;;;10.95;;
77938;SDS011;67136;47.546;21.630;2023-08-31T07:10:51;14.05;;;10.02;;
77938;SDS011;67136;47.546;21.630;2023-08-31T07:13:54;15.47;;;10.80;;
77938;SDS011;67136;47.546;21.630;2023-08-31T07:16:57;16.87;;;10.52;;
77938;SDS011;67136;47.546;21.630;2023-08-31T07:19:59;14.80;;;10.00;;
77938;SDS011;67136;47.546;21.630;2023-08-31T07:23:02;13.05;;;9.95;;
77938;SDS011;67136;47.546;21.630;2023-08-31T07:26:05;11.90;;;9.23;;
77938;SDS011;67136;47.546;21.630;2023-08-31T07:29:08;13.00;;;8.97;;
77938;SDS011;67136;47.546;21.630;2023-08-31T07:32:10;13.82;;;9.27;;
77938;SDS011;67136;47.546;21.630;2023-08-31T07:35:13;13.15;;;9.50;;
77938;SDS011;67136;47.546;21.630;2023-08-31T07:38:16;12.77;;;9.25;;
77938;SDS011;67136;47.546;21.630;2023-08-31T07:41:19;13.32;;;9.77;;
77938;SDS011;67136;47.546;21.630;2023-08-31T07:44:21;10.23;;;8.63;;
77938;SDS011;67136;47.546;21.630;2023-08-31T07:47:24;12.35;;;8.90;;
77938;SDS011;67136;47.546;21.630;2023-08-31T07:50:27;15.20;;;9.10;;
77938;SDS011;67136;47.546;21.630;2023-08-31T07:53:29;10.90;;;8.30;;
77938;SDS011;67136;47.546;21.630;2023-08-31T07:56:32;12.00;;;8.93;;
77938;SDS011;67136;47.546;21.630;2023-08-31T07:59:34;12.60;;;8.73;;
77938;SDS011;67136;47.546;21.630;2023-08-31T08:02:37;13.75;;;9.10;;
77938;SDS011;67136;47.546;21.630;2023-08-31T08:05:40;13.75;;;8.80;;
77938;SDS011;67136;47.546;21.630;2023-08-31T08:08:43;12.52;;;9.15;;
77938;SDS011;67136;47.546;21.630;2023-08-31T08:11:46;14.68;;;10.13;;
77938;SDS011;67136;47.546;21.630;2023-08-31T08:14:49;13.23;;;10.10;;
77938;SDS011;67136;47.546;21.630;2023-08-31T08:17:52;13.38;;;9.50;;
77938;SDS011;67136;47.546;21.630;2023-08-31T08:20:56;16.77;;;9.73;;
77938;SDS011;67136;47.546;21.630;2023-08-31T08:23:58;12.30;;;9.25;;
77938;SDS011;67136;47.546;21.630;2023-08-31T08:27:01;12.37;;;8.55;;
77938;SDS011;67136;47.546;21.630;2023-08-31T08:30:04;12.97;;;8.50;;
77938;SDS011;67136;47.546;21.630;2023-08-31T08:33:08;10.93;;;8.00;;
77938;SDS011;67136;47.546;21.630;2023-08-31T08:36:12;12.10;;;8.27;;
77938;SDS011;67136;47.546;21.630;2023-08-31T08:39:14;10.57;;;7.65;;
77938;SDS011;67136;47.546;21.630;2023-08-31T08:42:17;12.88;;;8.30;;
77938;SDS011;67136;47.546;21.630;2023-08-31T08:45:21;10.20;;;8.03;;
77938;SDS011;67136;47.546;21.630;2023-08-31T08:48:28;11.82;;;8.85;;
77938;SDS011;67136;47.546;21.630;2023-08-31T08:51:30;13.35;;;8.52;;
77938;SDS011;67136;47.546;21.630;2023-08-31T08:54:34;11.70;;;8.18;;
77938;SDS011;67136;47.546;21.630;2023-08-31T08:57:41;10.07;;;7.85;;
77938;SDS011;67136;47.546;21.630;2023-08-31T09:00:44;12.67;;;8.37;;
77938;SDS011;67136;47.546;21.630;2023-08-31T09:03:49;13.10;;;8.20;;
77938;SDS011;67136;47.546;21.630;2023-08-31T09:06:52;11.05;;;8.35;;
77938;SDS011;67136;47.546;21.630;2023-08-31T09:09:55;10.18;;;8.27;;
77938;SDS011;67136;47.546;21.630;2023-08-31T09:12:58;11.50;;;9.15;;
77938;SDS011;67136;47.546;21.630;2023-08-31T09:16:02;12.53;;;9.33;;
77938;SDS011;67136;47.546;21.630;2023-08-31T09:19:17;10.63;;;8.48;;
77938;SDS011;67136;47.546;21.630;2023-08-31T09:22:23;15.27;;;9.60;;
77938;SDS011;67136;47.546;21.630;2023-08-31T09:25:26;12.02;;;8.98;;
77938;SDS011;67136;47.546;21.630;2023-08-31T09:28:30;14.68;;;9.68;;
77938;SDS011;67136;47.546;21.630;2023-08-31T09:31:34;12.93;;;9.43;;
77938;SDS011;67136;47.546;21.630;2023-08-31T09:34:37;11.70;;;9.32;;
77938;SDS011;67136;47.546;21.630;2023-08-31T09:37:40;13.25;;;8.93;;
77938;SDS011;67136;47.546;21.630;2023-08-31T09:40:43;13.38;;;9.73;;
77938;SDS011;67136;47.546;21.630;2023-08-31T09:43:48;12.98;;;9.43;;
77938;SDS011;67136;47.546;21.630;2023-08-31T09:46:51;14.70;;;9.53;;
77938;SDS011;67136;47.546;21.630;2023-08-31T09:49:55;17.67;;;9.40;;
77938;SDS011;67136;47.546;21.630;2023-08-31T09:53:04;12.63;;;9.10;;
77938;SDS011;67136;47.546;21.630;2023-08-31T09:56:10;11.77;;;8.38;;
77938;SDS011;67136;47.546;21.630;2023-08-31T09:59:15;11.82;;;8.57;;
77938;SDS011;67136;47.546;21.630;2023-08-31T10:02:19;11.77;;;8.70;;
77938;SDS011;67136;47.546;21.630;2023-08-31T10:05:22;12.25;;;9.20;;
77938;SDS011;67136;47.546;21.630;2023-08-31T10:08:27;9.52;;;7.60;;
77938;SDS011;67136;47.546;21.630;2023-08-31T10:11:33;10.55;;;8.02;;
77938;SDS011;67136;47.546;21.630;2023-08-31T10:14:37;10.13;;;7.53;;
77938;SDS011;67136;47.546;21.630;2023-08-31T10:17:40;9.57;;;7.40;;
77938;SDS011;67136;47.546;21.630;2023-08-31T10:20:43;8.80;;;6.90;;
77938;SDS011;67136;47.546;21.630;2023-08-31T10:23:47;6.43;;;5.15;;
77938;SDS011;67136;47.546;21.630;2023-08-31T10:26:50;7.05;;;5.10;;
77938;SDS011;67136;47.546;21.630;2023-08-31T10:29:52;8.20;;;5.20;;
77938;SDS011;67136;47.546;21.630;2023-08-31T10:33:02;5.00;;;4.27;;
77938;SDS011;67136;47.546;21.630;2023-08-31T10:36:21;6.62;;;4.40;;
77938;SDS011;67136;47.546;21.630;2023-08-31T10:39:24;5.97;;;4.75;;
77938;SDS011;67136;47.546;21.630;2023-08-31T10:42:42;5.20;;;4.15;;
77938;SDS011;67136;47.546;21.630;2023-08-31T10:45:46;8.77;;;5.28;;
77938;SDS011;67136;47.546;21.630;2023-08-31T10:48:51;7.03;;;4.87;;
77938;SDS011;67136;47.546;21.630;2023-08-31T10:51:55;5.75;;;4.32;;
77938;SDS011;67136;47.546;21.630;2023-08-31T10:54:59;5.50;;;4.78;;
77938;SDS011;67136;47.546;21.630;2023-08-31T10:58:10;5.65;;;4.57;;
77938;SDS011;67136;47.546;21.630;2023-08-31T11:01:13;4.70;;;3.87;;
77938;SDS011;67136;47.546;21.630;2023-08-31T11:04:15;4.20;;;3.77;;
77938;SDS011;67136;47.546;21.630;2023-08-31T11:07:18;4.28;;;3.33;;
77938;SDS011;67136;47.546;21.630;2023-08-31T11:10:25;4.00;;;3.60;;
77938;SDS011;67136;47.546;21.630;2023-08-31T11:13:32;5.75;;;3.45;;
77938;SDS011;67136;47.546;21.630;2023-08-31T11:16:37;6.68;;;3.53;;
77938;SDS011;67136;47.546;21.630;2023-08-31T11:19:40;5.50;;;2.90;;
77938;SDS011;67136;47.546;21.630;2023-08-31T11:22:44;3.75;;;2.78;;
77938;SDS011;67136;47.546;21.630;2023-08-31T11:25:49;2.78;;;2.40;;
77938;SDS011;67136;47.546;21.630;2023-08-31T11:28:52;3.40;;;3.10;;
77938;SDS011;67136;47.546;21.630;2023-08-31T11:31:58;3.42;;;2.72;;
77938;SDS011;67136;47.546;21.630;2023-08-31T11:35:04;2.10;;;1.90;;
77938;SDS011;67136;47.546;21.630;2023-08-31T11:38:09;3.12;;;2.12;;
77938;SDS011;67136;47.546;21.630;2023-08-31T11:41:11;2.30;;;2.10;;
77938;SDS011;67136;47.546;21.630;2023-08-31T11:44:14;2.28;;;1.98;;
77938;SDS011;67136;47.546;21.630;2023-08-31T11:47:19;2.87;;;2.03;;
77938;SDS011;67136;47.546;21.630;2023-08-31T11:50:23;7.13;;;1.87;;
77938;SDS011;67136;47.546;21.630;2023-08-31T11:53:26;2.70;;;2.28;;
77938;SDS011;67136;47.546;21.630;2023-08-31T11:59:45;2.40;;;2.20;;
77938;SDS011;67136;47.546;21.630;2023-08-31T12:02:57;3.67;;;2.12;;
77938;SDS011;67136;47.546;21.630;2023-08-31T12:06:01;3.83;;;2.50;;
77938;SDS011;67136;47.546;21.630;2023-08-31T12:09:06;2.40;;;2.20;;
77938;SDS011;67136;47.546;21.630;2023-08-31T12:12:15;2.50;;;2.28;;
77938;SDS011;67136;47.546;21.630;2023-08-31T12:15:29;2.80;;;2.35;;
77938;SDS011;67136;47.546;21.630;2023-08-31T12:18:36;2.55;;;2.35;;
77938;SDS011;67136;47.546;21.630;2023-08-31T12:21:39;2.30;;;2.10;;
77938;SDS011;67136;47.546;21.630;2023-08-31T12:24:44;3.00;;;2.70;;
77938;SDS011;67136;47.546;21.630;2023-08-31T12:27:46;3.17;;;1.98;;
77938;SDS011;67136;47.546;21.630;2023-08-31T12:30:49;2.30;;;2.10;;
77938;SDS011;67136;47.546;21.630;2023-08-31T12:33:58;2.12;;;1.70;;
77938;SDS011;67136;47.546;21.630;2023-08-31T12:37:03;1.50;;;1.40;;
77938;SDS011;67136;47.546;21.630;2023-08-31T12:40:07;1.60;;;1.30;;
77938;SDS011;67136;47.546;21.630;2023-08-31T12:43:12;1.65;;;1.55;;
77938;SDS011;67136;47.546;21.630;2023-08-31T12:46:15;1.70;;;1.40;;
77938;SDS011;67136;47.546;21.630;2023-08-31T12:49:19;1.60;;;1.25;;
77938;SDS011;67136;47.546;21.630;2023-08-31T12:52:22;1.83;;;1.60;;
77938;SDS011;67136;47.546;21.630;2023-08-31T12:55:26;2.78;;;1.55;;
77938;SDS011;67136;47.546;21.630;2023-08-31T12:58:28;1.60;;;1.20;;
77938;SDS011;67136;47.546;21.630;2023-08-31T13:01:31;2.05;;;1.48;;
77938;SDS011;67136;47.546;21.630;2023-08-31T13:04:35;3.08;;;1.50;;
77938;SDS011;67136;47.546;21.630;2023-08-31T13:07:39;1.60;;;1.30;;
77938;SDS011;67136;47.546;21.630;2023-08-31T13:10:42;1.15;;;1.00;;
77938;SDS011;67136;47.546;21.630;2023-08-31T13:13:45;1.80;;;1.20;;
77938;SDS011;67136;47.546;21.630;2023-08-31T13:16:48;2.33;;;1.42;;
77938;SDS011;67136;47.546;21.630;2023-08-31T13:19:51;2.15;;;1.27;;
77938;SDS011;67136;47.546;21.630;2023-08-31T13:22:53;1.43;;;1.23;;
77938;SDS011;67136;47.546;21.630;2023-08-31T13:25:56;1.30;;;1.15;;
77938;SDS011;67136;47.546;21.630;2023-08-31T13:28:58;2.95;;;1.00;;
77938;SDS011;67136;47.546;21.630;2023-08-31T13:32:01;1.67;;;1.10;;
77938;SDS011;67136;47.546;21.630;2023-08-31T13:35:04;1.60;;;1.23;;
77938;SDS011;67136;47.546;21.630;2023-08-31T13:38:10;2.17;;;1.40;;
77938;SDS011;67136;47.546;21.630;2023-08-31T13:41:13;2.20;;;1.52;;
77938;SDS011;67136;47.546;21.630;2023-08-31T13:44:16;2.65;;;1.50;;
77938;SDS011;67136;47.546;21.630;2023-08-31T13:47:18;1.40;;;1.05;;
77938;SDS011;67136;47.546;21.630;2023-08-31T13:50:21;2.35;;;1.20;;
77938;SDS011;67136;47.546;21.630;2023-08-31T13:53:23;1.83;;;1.07;;
77938;SDS011;67136;47.546;21.630;2023-08-31T13:56:26;2.58;;;1.23;;
77938;SDS011;67136;47.546;21.630;2023-08-31T13:59:29;4.30;;;1.40;;
77938;SDS011;67136;47.546;21.630;2023-08-31T14:02:31;1.15;;;1.05;;
77938;SDS011;67136;47.546;21.630;2023-08-31T14:05:34;1.65;;;1.20;;
77938;SDS011;67136;47.546;21.630;2023-08-31T14:08:37;2.10;;;1.10;;
77938;SDS011;67136;47.546;21.630;2023-08-31T14:11:40;1.67;;;1.20;;
77938;SDS011;67136;47.546;21.630;2023-08-31T14:14:42;2.65;;;2.03;;
77938;SDS011;67136;47.546;21.630;2023-08-31T14:17:51;1.52;;;1.12;;
77938;SDS011;67136;47.546;21.630;2023-08-31T14:20:55;1.35;;;1.00;;
77938;SDS011;67136;47.546;21.630;2023-08-31T14:24:00;2.57;;;1.20;;
77938;SDS011;67136;47.546;21.630;2023-08-31T14:27:03;1.62;;;1.30;;
77938;SDS011;67136;47.546;21.630;2023-08-31T14:30:06;2.67;;;1.00;;
77938;SDS011;67136;47.546;21.630;2023-08-31T14:33:09;3.12;;;1.45;;
77938;SDS011;67136;47.546;21.630;2023-08-31T14:36:13;2.42;;;1.10;;
77938;SDS011;67136;47.546;21.630;2023-08-31T14:39:16;1.60;;;1.00;;
77938;SDS011;67136;47.546;21.630;2023-08-31T14:42:20;2.58;;;1.12;;
77938;SDS011;67136;47.546;21.630;2023-08-31T14:45:23;1.02;;;0.93;;
77938;SDS011;67136;47.546;21.630;2023-08-31T14:48:29;1.15;;;0.93;;
77938;SDS011;67136;47.546;21.630;2023-08-31T14:51:32;1.80;;;1.00;;
77938;SDS011;67136;47.546;21.630;2023-08-31T14:54:35;2.00;;;1.00;;
77938;SDS011;67136;47.546;21.630;2023-08-31T14:57:38;2.15;;;0.70;;
77938;SDS011;67136;47.546;21.630;2023-08-31T15:00:44;1.10;;;0.90;;
77938;SDS011;67136;47.546;21.630;2023-08-31T15:03:47;2.97;;;1.10;;
77938;SDS011;67136;47.546;21.630;2023-08-31T15:06:51;1.95;;;1.10;;
77938;SDS011;67136;47.546;21.630;2023-08-31T15:09:55;1.83;;;0.90;;
77938;SDS011;67136;47.546;21.630;2023-08-31T15:12:58;1.62;;;1.02;;
77938;SDS011;67136;47.546;21.630;2023-08-31T15:16:01;2.40;;;1.08;;
77938;SDS011;67136;47.546;21.630;2023-08-31T15:19:04;2.83;;;1.10;;
77938;SDS011;67136;47.546;21.630;2023-08-31T15:22:06;1.60;;;1.10;;
77938;SDS011;67136;47.546;21.630;2023-08-31T15:25:09;1.20;;;0.97;;
77938;SDS011;67136;47.546;21.630;2023-08-31T15:28:11;1.70;;;1.12;;
77938;SDS011;67136;47.546;21.630;2023-08-31T15:31:15;2.90;;;1.10;;
77938;SDS011;67136;47.546;21.630;2023-08-31T15:34:18;4.85;;;1.12;;
77938;SDS011;67136;47.546;21.630;2023-08-31T15:37:21;4.47;;;1.27;;
77938;SDS011;67136;47.546;21.630;2023-08-31T15:40:23;1.53;;;0.97;;
77938;SDS011;67136;47.546;21.630;2023-08-31T15:43:30;4.07;;;1.20;;
77938;SDS011;67136;47.546;21.630;2023-08-31T15:46:33;3.80;;;1.30;;
77938;SDS011;67136;47.546;21.630;2023-08-31T15:49:36;1.98;;;1.35;;
77938;SDS011;67136;47.546;21.630;2023-08-31T15:52:39;2.33;;;1.10;;
77938;SDS011;67136;47.546;21.630;2023-08-31T15:55:42;3.30;;;1.33;;
77938;SDS011;67136;47.546;21.630;2023-08-31T15:58:48;3.12;;;1.23;;
77938;SDS011;67136;47.546;21.630;2023-08-31T16:01:51;1.80;;;1.30;;
77938;SDS011;67136;47.546;21.630;2023-08-31T16:04:53;4.05;;;0.90;;
77938;SDS011;67136;47.546;21.630;2023-08-31T16:07:56;2.55;;;1.20;;
77938;SDS011;67136;47.546;21.630;2023-08-31T16:10:58;6.50;;;1.20;;
77938;SDS011;67136;47.546;21.630;2023-08-31T16:14:05;2.65;;;1.05;;
77938;SDS011;67136;47.546;21.630;2023-08-31T16:17:08;3.75;;;1.10;;
77938;SDS011;67136;47.546;21.630;2023-08-31T16:20:10;3.30;;;1.30;;
77938;SDS011;67136;47.546;21.630;2023-08-31T16:23:13;1.60;;;1.05;;
77938;SDS011;67136;47.546;21.630;2023-08-31T16:26:16;1.93;;;0.90;;
77938;SDS011;67136;47.546;21.630;2023-08-31T16:29:18;1.62;;;1.10;;
77938;SDS011;67136;47.546;21.630;2023-08-31T16:32:21;2.05;;;1.25;;
77938;SDS011;67136;47.546;21.630;2023-08-31T16:35:24;1.98;;;1.30;;
77938;SDS011;67136;47.546;21.630;2023-08-31T16:38:26;3.72;;;1.12;;
77938;SDS011;67136;47.546;21.630;2023-08-31T16:41:30;2.90;;;1.10;;
77938;SDS011;67136;47.546;21.630;2023-08-31T16:44:33;1.80;;;1.27;;
77938;SDS011;67136;47.546;21.630;2023-08-31T16:47:36;1.45;;;1.20;;
77938;SDS011;67136;47.546;21.630;2023-08-31T16:50:39;1.70;;;1.20;;
77938;SDS011;67136;47.546;21.630;2023-08-31T16:53:42;2.78;;;1.42;;
77938;SDS011;67136;47.546;21.630;2023-08-31T16:56:44;2.63;;;1.20;;
77938;SDS011;67136;47.546;21.630;2023-08-31T16:59:50;2.00;;;1.23;;
77938;SDS011;67136;47.546;21.630;2023-08-31T17:02:53;3.05;;;1.90;;
77938;SDS011;67136;47.546;21.630;2023-08-31T17:05:56;2.35;;;1.50;;
77938;SDS011;67136;47.546;21.630;2023-08-31T17:08:58;4.10;;;1.80;;
77938;SDS011;67136;47.546;21.630;2023-08-31T17:12:01;3.30;;;1.60;;
77938;SDS011;67136;47.546;21.630;2023-08-31T17:15:04;1.90;;;1.40;;
77938;SDS011;67136;47.546;21.630;2023-08-31T17:18:08;2.10;;;1.48;;
77938;SDS011;67136;47.546;21.630;2023-08-31T17:21:11;3.33;;;1.73;;
77938;SDS011;67136;47.546;21.630;2023-08-31T17:24:14;3.45;;;1.60;;
77938;SDS011;67136;47.546;21.630;2023-08-31T17:27:18;3.03;;;1.90;;
77938;SDS011;67136;47.546;21.630;2023-08-31T17:30:21;3.25;;;1.80;;
77938;SDS011;67136;47.546;21.630;2023-08-31T17:33:24;5.18;;;1.90;;
77938;SDS011;67136;47.546;21.630;2023-08-31T17:36:30;4.78;;;2.03;;
77938;SDS011;67136;47.546;21.630;2023-08-31T17:39:33;4.07;;;1.90;;
77938;SDS011;67136;47.546;21.630;2023-08-31T17:42:36;4.40;;;2.10;;
77938;SDS011;67136;47.546;21.630;2023-08-31T17:45:39;2.90;;;2.10;;
77938;SDS011;67136;47.546;21.630;2023-08-31T17:48:41;3.83;;;2.30;;
77938;SDS011;67136;47.546;21.630;2023-08-31T17:51:46;6.75;;;2.40;;
77938;SDS011;67136;47.546;21.630;2023-08-31T17:54:51;4.30;;;2.95;;
77938;SDS011;67136;47.546;21.630;2023-08-31T17:57:54;5.60;;;2.97;;
77938;SDS011;67136;47.546;21.630;2023-08-31T18:00:57;3.03;;;2.60;;
77938;SDS011;67136;47.546;21.630;2023-08-31T18:04:00;3.70;;;3.00;;